createdAt,value
2023-01-17T00:02:02.588Z,2.65
2023-01-17T00:04:48.114Z,3.25
2023-01-17T00:07:35.191Z,3.10
2023-01-17T00:10:07.308Z,2.90
2023-01-17T00:12:35.824Z,2.50
2023-01-17T00:15:04.214Z,3.03
2023-01-17T00:17:32.033Z,2.90
2023-01-17T00:20:19.316Z,2.75
2023-01-17T00:23:05.421Z,3.10
2023-01-17T00:25:55.519Z,3.17
2023-01-17T00:28:22.449Z,2.90
2023-01-17T00:30:49.173Z,3.25
2023-01-17T00:33:15.897Z,3.20
2023-01-17T00:35:42.499Z,3.30
2023-01-17T00:38:11.730Z,3.38
2023-01-17T00:40:41.509Z,3.65
2023-01-17T00:43:28.266Z,3.40
2023-01-17T00:46:14.167Z,2.85
2023-01-17T00:49:00.548Z,1.77
2023-01-17T00:51:46.771Z,1.67
2023-01-17T00:54:32.576Z,1.30
2023-01-17T00:57:19.998Z,1.20
2023-01-17T01:00:05.950Z,0.90
2023-01-17T01:02:52.273Z,1.00
2023-01-17T01:05:38.279Z,0.90
2023-01-17T01:08:34.683Z,0.90
2023-01-17T01:11:22.855Z,0.90
2023-01-17T01:14:09.453Z,1.40
2023-01-17T01:16:54.597Z,1.73
2023-01-17T01:19:40.177Z,1.88
2023-01-17T01:22:25.237Z,1.65
2023-01-17T01:25:10.733Z,1.80
2023-01-17T01:27:56.088Z,1.83
2023-01-17T01:30:42.464Z,2.10
2023-01-17T01:33:19.312Z,1.95
2023-01-17T01:35:49.515Z,1.70
2023-01-17T01:38:17.713Z,1.60
2023-01-17T01:40:47.907Z,1.75
2023-01-17T01:43:17.415Z,1.98
2023-01-17T01:45:52.593Z,2.10
2023-01-17T01:48:36.268Z,1.88
2023-01-17T01:51:07.259Z,1.90
2023-01-17T01:53:39.679Z,1.70
2023-01-17T01:58:37.943Z,1.67
2023-01-17T02:01:09.333Z,1.77
2023-01-17T02:03:41.164Z,1.80
2023-01-17T02:06:25.533Z,1.55
2023-01-17T02:08:53.372Z,1.00
2023-01-17T02:11:21.749Z,1.00
2023-01-17T02:13:49.392Z,0.98
2023-01-17T02:16:33.287Z,0.90
2023-01-17T02:19:16.713Z,0.90
2023-01-17T02:21:58.744Z,0.80
2023-01-17T02:24:59.404Z,0.77
2023-01-17T02:27:29.942Z,0.70
2023-01-17T02:33:03.187Z,1.00
2023-01-17T02:35:41.343Z,0.90
2023-01-17T02:38:20.536Z,1.20
2023-01-17T02:40:50.861Z,1.00
2023-01-17T02:43:21.586Z,1.20
2023-01-17T02:45:49.332Z,1.15
2023-01-17T02:48:22.264Z,1.40
2023-01-17T02:51:05.391Z,1.50
2023-01-17T02:53:44.839Z,1.98
2023-01-17T02:56:23.094Z,1.58
2023-01-17T02:59:06.954Z,1.73
2023-01-17T03:01:44.532Z,1.60
2023-01-17T03:04:16.409Z,1.60
2023-01-17T03:06:49.009Z,1.40
2023-01-17T03:09:18.351Z,1.30
2023-01-17T03:11:46.605Z,1.60
2023-01-17T03:14:14.274Z,1.70
2023-01-17T03:16:42.449Z,1.10
2023-01-17T03:19:10.261Z,1.30
2023-01-17T03:21:39.360Z,1.13
2023-01-17T03:24:07.774Z,1.17
2023-01-17T03:26:35.576Z,1.35
2023-01-17T03:29:03.356Z,1.30
2023-01-17T03:31:31.096Z,1.63
2023-01-17T03:33:58.773Z,1.42
2023-01-17T03:36:26.463Z,1.55
2023-01-17T03:38:55.603Z,1.60
2023-01-17T03:41:23.323Z,1.63
2023-01-17T03:43:51.112Z,1.60
2023-01-17T03:46:22.714Z,1.90
2023-01-17T03:48:51.023Z,1.87
2023-01-17T03:51:18.861Z,1.85
2023-01-17T03:53:47.338Z,2.10
2023-01-17T03:56:16.607Z,2.40
2023-01-17T03:58:44.659Z,2.70
2023-01-17T04:01:12.672Z,2.75
2023-01-17T04:03:40.475Z,3.70
2023-01-17T04:06:10.754Z,3.08
2023-01-17T04:08:38.443Z,3.40
2023-01-17T04:11:08.755Z,3.28
2023-01-17T04:13:39.786Z,3.08
2023-01-17T04:16:11.395Z,3.60
2023-01-17T04:18:39.165Z,3.97
2023-01-17T04:21:07.697Z,3.38
2023-01-17T04:23:35.620Z,3.10
2023-01-17T04:26:03.569Z,3.83
2023-01-17T04:28:31.783Z,4.20
2023-01-17T04:31:01.407Z,3.95
2023-01-17T04:33:29.131Z,4.20
2023-01-17T04:35:57.053Z,4.53
2023-01-17T04:38:24.886Z,4.70
2023-01-17T04:40:52.756Z,3.80
2023-01-17T04:43:20.514Z,4.00
2023-01-17T04:45:48.275Z,3.85
2023-01-17T04:48:17.322Z,3.85
2023-01-17T04:50:45.045Z,4.13
2023-01-17T04:53:12.708Z,3.53
2023-01-17T04:55:40.340Z,3.83
2023-01-17T04:58:08.128Z,3.50
2023-01-17T05:00:35.801Z,3.47
2023-01-17T05:03:03.625Z,2.60
2023-01-17T05:05:35.662Z,2.90
2023-01-17T05:08:03.355Z,2.85
2023-01-17T05:10:31.109Z,2.50
2023-01-17T05:13:00.538Z,2.50
2023-01-17T05:15:28.562Z,2.58
2023-01-17T05:17:56.501Z,2.50
2023-01-17T05:20:25.913Z,2.65
2023-01-17T05:22:56.432Z,3.17
2023-01-17T05:25:24.454Z,3.28
2023-01-17T05:27:52.356Z,3.15
2023-01-17T05:30:20.514Z,2.53
2023-01-17T05:32:49.759Z,2.53
2023-01-17T05:35:19.485Z,3.53
2023-01-17T05:37:49.088Z,3.25
2023-01-17T05:40:18.987Z,2.83
2023-01-17T05:42:47.311Z,3.20
2023-01-17T05:45:17.021Z,3.22
2023-01-17T05:47:45.204Z,3.25
2023-01-17T05:50:13.975Z,2.92
2023-01-17T05:52:42.123Z,3.50
2023-01-17T05:55:10.625Z,4.32
2023-01-17T05:57:39.894Z,3.40
2023-01-17T06:00:08.980Z,4.22
2023-01-17T06:02:36.672Z,4.47
2023-01-17T06:05:04.775Z,4.60
2023-01-17T06:07:32.911Z,5.60
2023-01-17T06:10:00.545Z,5.13
2023-01-17T06:12:28.250Z,5.70
2023-01-17T06:14:57.974Z,5.43
2023-01-17T06:17:25.794Z,6.63
2023-01-17T06:19:53.594Z,6.05
2023-01-17T06:22:21.330Z,7.07
2023-01-17T06:24:49.097Z,7.15
2023-01-17T06:27:16.815Z,9.63
2023-01-17T06:29:44.498Z,8.55
2023-01-17T06:32:14.210Z,7.78
2023-01-17T06:34:42.219Z,8.40
2023-01-17T06:37:10.034Z,8.30
2023-01-17T06:39:37.700Z,9.25
2023-01-17T06:42:05.522Z,10.07
2023-01-17T06:44:33.125Z,9.45
2023-01-17T06:47:00.824Z,9.50
2023-01-17T06:49:29.882Z,9.80
2023-01-17T06:51:57.513Z,10.43
2023-01-17T06:54:25.427Z,11.25
2023-01-17T06:56:53.115Z,11.68
2023-01-17T06:59:20.852Z,11.30
2023-01-17T07:01:48.642Z,12.13
2023-01-17T07:04:16.384Z,12.63
2023-01-17T07:06:45.426Z,12.00
2023-01-17T07:09:13.732Z,12.60
2023-01-17T07:11:41.520Z,14.43
2023-01-17T07:14:13.590Z,13.13
2023-01-17T07:16:43.646Z,14.10
2023-01-17T07:19:11.351Z,16.30
2023-01-17T07:21:39.126Z,14.77
2023-01-17T07:24:08.997Z,18.92
2023-01-17T07:26:37.695Z,16.92
2023-01-17T07:29:05.795Z,18.73
2023-01-17T07:31:35.318Z,19.08
2023-01-17T07:34:03.269Z,20.10
2023-01-17T07:36:31.113Z,19.17
2023-01-17T07:38:58.840Z,19.52
2023-01-17T07:41:27.927Z,21.55
2023-01-17T07:43:56.502Z,20.30
2023-01-17T07:46:24.263Z,22.30
2023-01-17T07:48:52.138Z,22.92
2023-01-17T07:51:19.921Z,21.80
2023-01-17T07:53:47.615Z,24.17
2023-01-17T07:56:15.306Z,24.08
2023-01-17T07:58:44.310Z,22.88
2023-01-17T08:01:14.313Z,21.85
2023-01-17T08:03:42.210Z,21.60
2023-01-17T08:06:18.654Z,21.92
2023-01-17T08:08:46.317Z,22.50
2023-01-17T08:11:14.352Z,21.30
2023-01-17T08:13:42.118Z,22.73
2023-01-17T08:16:12.772Z,20.35
2023-01-17T08:18:41.146Z,21.95
2023-01-17T08:21:19.167Z,21.77
2023-01-17T08:23:49.490Z,21.75
2023-01-17T08:26:21.399Z,20.30
2023-01-17T08:28:50.255Z,18.67
2023-01-17T08:31:19.872Z,19.05
2023-01-17T08:33:47.644Z,20.63
2023-01-17T08:36:15.325Z,18.80
2023-01-17T08:38:42.975Z,18.73
2023-01-17T08:41:10.934Z,17.48
2023-01-17T08:43:38.582Z,18.25
2023-01-17T08:46:06.542Z,19.08
2023-01-17T08:48:35.649Z,18.38
2023-01-17T08:51:05.839Z,15.38
2023-01-17T08:53:33.501Z,15.00
2023-01-17T08:56:01.986Z,16.10
2023-01-17T08:58:31.844Z,14.95
2023-01-17T09:01:02.059Z,16.17
2023-01-17T09:03:30.159Z,15.20
2023-01-17T09:06:09.060Z,17.50
2023-01-17T09:08:36.799Z,16.10
2023-01-17T09:11:05.663Z,16.50
2023-01-17T09:13:33.383Z,17.13
2023-01-17T09:16:01.698Z,18.38
2023-01-17T09:18:30.333Z,15.65
2023-01-17T09:20:59.242Z,16.52
2023-01-17T09:23:30.864Z,16.60
2023-01-17T09:26:01.165Z,18.67
2023-01-17T09:28:29.380Z,18.25
2023-01-17T09:30:57.074Z,17.20
2023-01-17T09:33:25.257Z,18.50
2023-01-17T09:35:52.949Z,16.77
2023-01-17T09:38:21.700Z,17.33
2023-01-17T09:40:50.763Z,17.50
2023-01-17T09:43:27.448Z,16.40
2023-01-17T09:45:55.328Z,15.40
2023-01-17T09:48:31.203Z,15.90
2023-01-17T09:51:02.105Z,16.90
2023-01-17T09:53:35.023Z,17.67
2023-01-17T09:56:10.418Z,16.23
2023-01-17T09:58:44.583Z,17.25
2023-01-17T10:01:17.847Z,18.30
2023-01-17T10:04:06.341Z,17.13
2023-01-17T10:06:55.962Z,16.70
2023-01-17T10:09:45.574Z,15.55
2023-01-17T10:12:24.172Z,15.48
2023-01-17T10:15:11.164Z,16.55
2023-01-17T10:17:48.873Z,15.35
2023-01-17T10:20:44.960Z,15.05
2023-01-17T10:23:33.237Z,14.88
2023-01-17T10:26:02.683Z,14.85
2023-01-17T10:28:41.384Z,16.30
2023-01-17T10:31:14.130Z,15.30
2023-01-17T10:33:47.749Z,15.68
2023-01-17T10:36:20.497Z,13.98
2023-01-17T10:38:50.787Z,14.15
2023-01-17T10:41:25.444Z,14.40
2023-01-17T10:44:04.394Z,14.63
2023-01-17T10:46:38.313Z,14.25
2023-01-17T10:49:06.004Z,14.18
2023-01-17T10:52:00.150Z,13.55
2023-01-17T10:54:46.899Z,13.05
2023-01-17T10:57:17.299Z,11.95
2023-01-17T10:59:46.394Z,11.88
2023-01-17T11:02:21.217Z,13.10
2023-01-17T11:04:54.307Z,14.25
2023-01-17T11:07:24.399Z,18.88
2023-01-17T11:09:53.801Z,32.53
2023-01-17T11:12:27.855Z,29.05
2023-01-17T11:15:02.666Z,23.88
2023-01-17T11:17:32.150Z,14.60
2023-01-17T11:20:16.906Z,40.45
2023-01-17T11:22:49.783Z,20.73
2023-01-17T11:25:23.278Z,22.35
2023-01-17T11:27:59.516Z,26.15
2023-01-17T11:30:29.687Z,18.85
2023-01-17T11:32:58.582Z,26.45
2023-01-17T11:35:28.808Z,10.95
2023-01-17T11:38:06.171Z,11.38
2023-01-17T11:40:38.691Z,15.10
2023-01-17T11:46:05.838Z,23.77
2023-01-17T11:48:40.388Z,20.13
2023-01-17T11:51:19.993Z,12.00
2023-01-17T11:53:49.141Z,10.25
2023-01-17T11:56:23.445Z,10.25
2023-01-17T11:58:52.054Z,10.32
2023-01-17T12:01:37.294Z,20.10
2023-01-17T12:04:25.120Z,12.63
2023-01-17T12:07:22.430Z,14.00
2023-01-17T12:10:00.254Z,15.93
2023-01-17T12:12:57.481Z,26.50
2023-01-17T12:15:39.385Z,19.08
2023-01-17T12:18:34.039Z,13.27
2023-01-17T12:21:15.584Z,10.68
2023-01-17T12:23:58.756Z,11.60
2023-01-17T12:26:35.894Z,14.23
2023-01-17T12:29:39.023Z,15.02
2023-01-17T12:32:32.984Z,10.23
2023-01-17T12:35:09.411Z,10.85
2023-01-17T12:37:40.011Z,15.35
2023-01-17T12:40:22.137Z,10.32
2023-01-17T12:42:54.634Z,15.52
2023-01-17T12:47:59.712Z,21.85
2023-01-17T12:50:33.269Z,11.75
2023-01-17T12:53:07.543Z,10.93
2023-01-17T12:55:39.560Z,10.57
2023-01-17T12:58:13.809Z,9.88
2023-01-17T13:00:44.988Z,9.32
2023-01-17T13:03:24.005Z,9.82
2023-01-17T13:05:54.725Z,9.45
2023-01-17T13:08:30.047Z,9.60
2023-01-17T13:11:02.400Z,9.80
2023-01-17T13:13:31.632Z,10.00
2023-01-17T13:16:06.132Z,8.90
2023-01-17T13:18:37.022Z,8.40
2023-01-17T13:21:28.355Z,7.78
2023-01-17T13:24:15.166Z,8.80
2023-01-17T13:26:56.231Z,8.10
2023-01-17T13:29:37.360Z,7.32
2023-01-17T13:32:18.544Z,7.07
2023-01-17T13:35:03.412Z,11.60
2023-01-17T13:37:53.497Z,7.30
2023-01-17T13:40:37.392Z,7.07
2023-01-17T13:43:12.765Z,7.80
2023-01-17T13:45:40.832Z,7.40
2023-01-17T13:48:26.395Z,7.28
2023-01-17T13:50:55.531Z,8.60
2023-01-17T13:53:59.352Z,7.95
2023-01-17T13:56:37.864Z,19.23
2023-01-17T13:59:26.607Z,8.10
2023-01-17T14:01:55.270Z,7.00
2023-01-17T14:04:24.443Z,7.10
2023-01-17T14:07:03.813Z,7.53
2023-01-17T14:09:42.845Z,9.57
2023-01-17T14:12:34.345Z,7.65
2023-01-17T14:15:03.754Z,8.00
2023-01-17T14:17:51.894Z,7.57
2023-01-17T14:20:49.020Z,7.32
2023-01-17T14:23:52.664Z,7.20
2023-01-17T14:26:46.490Z,7.50
2023-01-17T14:29:55.632Z,7.25
2023-01-17T14:32:25.590Z,7.40
2023-01-17T14:34:54.876Z,6.97
2023-01-17T14:37:31.224Z,6.60
2023-01-17T14:39:59.784Z,6.15
2023-01-17T14:42:31.681Z,6.88
2023-01-17T14:45:03.183Z,6.82
2023-01-17T14:47:33.395Z,6.07
2023-01-17T14:50:13.360Z,5.78
2023-01-17T14:52:41.069Z,5.82
2023-01-17T14:55:16.857Z,5.60
2023-01-17T14:57:54.833Z,6.43
2023-01-17T15:00:25.177Z,6.10
2023-01-17T15:02:54.797Z,6.43
2023-01-17T15:05:25.145Z,6.03
2023-01-17T15:07:55.738Z,6.03
2023-01-17T15:10:26.223Z,6.40
2023-01-17T15:12:57.536Z,5.65
2023-01-17T15:15:32.003Z,6.53
2023-01-17T15:18:10.382Z,5.97
2023-01-17T15:20:38.992Z,6.28
2023-01-17T15:23:07.374Z,5.93
2023-01-17T15:25:35.555Z,6.20
2023-01-17T15:28:06.575Z,6.65
2023-01-17T15:30:34.334Z,6.35
2023-01-17T15:33:02.102Z,6.47
2023-01-17T15:35:29.894Z,6.32
2023-01-17T15:37:58.216Z,5.68
2023-01-17T15:40:27.936Z,6.00
2023-01-17T15:42:59.233Z,4.75
2023-01-17T15:45:29.957Z,5.82
2023-01-17T15:47:59.102Z,6.38
2023-01-17T15:50:30.971Z,6.72
2023-01-17T15:53:01.443Z,5.80
2023-01-17T15:55:32.609Z,7.72
2023-01-17T15:58:00.724Z,6.40
2023-01-17T16:00:37.807Z,7.10
2023-01-17T16:03:21.907Z,7.10
2023-01-17T16:05:50.547Z,7.00
2023-01-17T16:08:39.481Z,7.90
2023-01-17T16:11:08.611Z,7.03
2023-01-17T16:13:39.235Z,7.03
2023-01-17T16:16:26.751Z,7.35
2023-01-17T16:19:01.500Z,7.22
2023-01-17T16:21:30.543Z,7.82
2023-01-17T16:24:01.569Z,7.95
2023-01-17T16:26:30.201Z,7.55
2023-01-17T16:28:58.036Z,8.30
2023-01-17T16:31:27.093Z,8.30
2023-01-17T16:33:54.815Z,8.15
2023-01-17T16:36:22.969Z,9.00
2023-01-17T16:38:52.455Z,8.60
2023-01-17T16:41:20.523Z,8.73
2023-01-17T16:44:00.908Z,10.00
2023-01-17T16:46:30.776Z,28.20
2023-01-17T16:49:00.615Z,20.27
2023-01-17T16:51:28.480Z,16.17
2023-01-17T16:53:56.182Z,14.00
2023-01-17T16:56:23.913Z,13.38
2023-01-17T16:58:53.324Z,15.38
2023-01-17T17:01:22.651Z,18.98
2023-01-17T17:03:52.147Z,19.98
2023-01-17T17:06:19.889Z,19.02
2023-01-17T17:08:47.627Z,20.25
2023-01-17T17:11:17.510Z,17.77
2023-01-17T17:13:46.583Z,16.17
2023-01-17T17:16:19.316Z,15.82
2023-01-17T17:18:54.286Z,18.80
2023-01-17T17:21:23.989Z,18.50
2023-01-17T17:23:56.785Z,21.00
2023-01-17T17:26:26.771Z,21.48
2023-01-17T17:28:55.403Z,36.97
2023-01-17T17:31:23.372Z,31.90
2023-01-17T17:33:51.225Z,28.70
2023-01-17T17:36:18.962Z,30.25
2023-01-17T17:38:54.271Z,29.23
2023-01-17T17:41:24.703Z,27.10
2023-01-17T17:43:53.123Z,26.85
2023-01-17T17:46:21.781Z,27.73
2023-01-17T17:48:50.378Z,24.60
2023-01-17T17:51:26.232Z,22.23
2023-01-17T17:53:56.493Z,21.35
2023-01-17T17:56:24.904Z,20.23
2023-01-17T17:58:52.552Z,26.88
2023-01-17T18:01:22.752Z,24.80
2023-01-17T18:03:55.407Z,24.92
2023-01-17T18:08:52.254Z,30.02
2023-01-17T18:11:23.973Z,30.05
2023-01-17T18:13:53.481Z,31.77
2023-01-17T18:16:23.550Z,31.23
2023-01-17T18:18:53.325Z,32.67
2023-01-17T18:21:25.042Z,31.75
2023-01-17T18:23:56.713Z,34.22
2023-01-17T18:26:28.267Z,33.20
2023-01-17T18:28:57.511Z,30.03
2023-01-17T18:31:27.139Z,30.83
2023-01-17T18:33:55.399Z,30.95
2023-01-17T18:36:24.308Z,32.70
2023-01-17T18:38:53.514Z,35.78
2023-01-17T18:41:24.499Z,37.25
2023-01-17T18:43:55.943Z,39.63
2023-01-17T18:46:25.769Z,41.58
2023-01-17T18:48:56.968Z,38.83
2023-01-17T18:51:25.301Z,31.17
2023-01-17T18:53:53.991Z,32.33
2023-01-17T18:56:23.122Z,31.00
2023-01-17T18:58:53.073Z,27.80
2023-01-17T19:01:23.216Z,28.65
2023-01-17T19:03:55.525Z,28.52
2023-01-17T19:06:27.892Z,31.67
2023-01-17T19:08:59.487Z,30.55
2023-01-17T19:11:28.014Z,31.60
2023-01-17T19:13:57.927Z,32.58
2023-01-17T19:16:35.596Z,30.15
2023-01-17T19:19:06.267Z,33.83
2023-01-17T19:21:34.875Z,28.27
2023-01-17T19:24:02.644Z,28.00
2023-01-17T19:26:30.584Z,28.77
2023-01-17T19:29:00.278Z,26.48
2023-01-17T19:31:29.741Z,25.98
2023-01-17T19:33:59.287Z,37.47
2023-01-17T19:36:28.911Z,37.80
2023-01-17T19:39:04.493Z,35.28
2023-01-17T19:41:36.083Z,30.63
2023-01-17T19:44:07.491Z,28.35
2023-01-17T19:46:36.380Z,28.88
2023-01-17T19:49:05.532Z,30.33
2023-01-17T19:51:33.259Z,30.50
2023-01-17T19:54:01.787Z,30.35
2023-01-17T19:56:30.235Z,29.90
2023-01-17T19:59:01.956Z,31.40
2023-01-17T20:01:33.840Z,29.75
2023-01-17T20:04:06.184Z,33.20
2023-01-17T20:06:35.736Z,34.38
2023-01-17T20:09:04.501Z,40.55
2023-01-17T20:11:32.254Z,38.88
2023-01-17T20:14:00.588Z,41.63
2023-01-17T20:16:29.933Z,40.65
2023-01-17T20:19:02.284Z,44.47
2023-01-17T20:21:31.911Z,41.80
2023-01-17T20:24:03.072Z,40.65
2023-01-17T20:26:35.561Z,42.70
2023-01-17T20:29:07.288Z,39.22
2023-01-17T20:31:38.118Z,35.80
2023-01-17T20:34:08.493Z,40.55
2023-01-17T20:36:36.985Z,34.65
2023-01-17T20:39:05.300Z,32.80
2023-01-17T20:41:34.680Z,41.33
2023-01-17T20:44:04.468Z,36.67
2023-01-17T20:46:35.673Z,38.83
2023-01-17T20:49:05.908Z,43.75
2023-01-17T20:51:37.578Z,46.38
2023-01-17T20:54:06.934Z,50.70
2023-01-17T20:56:37.117Z,39.78
2023-01-17T20:59:06.277Z,42.90
2023-01-17T21:01:34.534Z,48.53
2023-01-17T21:04:03.216Z,40.47
2023-01-17T21:06:31.098Z,39.78
2023-01-17T21:09:00.854Z,45.17
2023-01-17T21:11:28.731Z,52.25
2023-01-17T21:13:57.282Z,49.10
2023-01-17T21:16:28.023Z,43.47
2023-01-17T21:18:55.893Z,53.35
2023-01-17T21:21:26.079Z,54.05
2023-01-17T21:23:55.456Z,46.25
2023-01-17T21:26:26.678Z,54.08
2023-01-17T21:28:55.108Z,41.20
2023-01-17T21:31:25.741Z,45.40
2023-01-17T21:33:55.716Z,44.03
2023-01-17T21:36:25.998Z,52.08
2023-01-17T21:38:56.945Z,47.85
2023-01-17T21:41:28.488Z,49.78
2023-01-17T21:43:57.760Z,51.28
2023-01-17T21:46:26.472Z,54.33
2023-01-17T21:48:56.676Z,44.22
2023-01-17T21:51:24.466Z,46.90
2023-01-17T21:53:52.242Z,45.00
2023-01-17T21:56:42.696Z,43.90
2023-01-17T21:59:11.737Z,40.90
2023-01-17T22:01:39.513Z,47.70
2023-01-17T22:04:07.344Z,51.72
2023-01-17T22:06:35.559Z,48.08
2023-01-17T22:09:04.299Z,50.03
2023-01-17T22:11:32.597Z,49.17
2023-01-17T22:14:03.251Z,50.38
2023-01-17T22:16:32.596Z,46.92
2023-01-17T22:19:00.354Z,59.25
2023-01-17T22:21:29.451Z,61.63
2023-01-17T22:23:58.286Z,51.05
2023-01-17T22:26:27.843Z,46.70
2023-01-17T22:28:56.096Z,41.80
2023-01-17T22:31:26.801Z,48.78
2023-01-17T22:33:58.418Z,47.05
2023-01-17T22:36:26.522Z,50.35
2023-01-17T22:38:54.739Z,60.85
2023-01-17T22:41:24.980Z,52.20
2023-01-17T22:43:54.182Z,42.40
2023-01-17T22:46:24.867Z,59.85
2023-01-17T22:48:53.316Z,51.33
2023-01-17T22:51:24.481Z,48.03
2023-01-17T22:53:54.028Z,49.55
2023-01-17T22:56:23.283Z,42.28
2023-01-17T22:58:51.224Z,45.20
2023-01-17T23:01:20.568Z,48.30
2023-01-17T23:03:52.677Z,50.22
2023-01-17T23:06:23.945Z,53.55
2023-01-17T23:08:54.314Z,49.58
2023-01-17T23:11:40.643Z,52.67
2023-01-17T23:14:10.867Z,48.38
2023-01-17T23:16:56.328Z,69.70
2023-01-17T23:19:24.808Z,57.97
2023-01-17T23:22:13.589Z,49.65
2023-01-17T23:24:44.125Z,41.50
2023-01-17T23:27:31.606Z,45.35
2023-01-17T23:29:59.776Z,49.90
2023-01-17T23:32:36.226Z,52.23
2023-01-17T23:35:04.165Z,48.63
2023-01-17T23:37:50.756Z,54.08
2023-01-17T23:40:19.012Z,48.20
2023-01-17T23:43:04.422Z,50.60
2023-01-17T23:45:35.681Z,51.20
2023-01-17T23:48:05.079Z,45.00
2023-01-17T23:50:33.641Z,48.03
2023-01-17T23:53:06.841Z,43.45
2023-01-17T23:55:36.326Z,41.28
2023-01-17T23:58:04.431Z,35.67
